Time;durP1;ratioP1;P1;durP2;ratioP2;P2;SDS_P1;SDS_P2;PMS_P1;PMS_P2;Temp;Humidity;BMP_temperature;BMP_pressure;BME280_temperature;BME280_humidity;BME280_pressure;Samples;Min_cycle;Max_cycle;Signal;HPM_P1;HPM_P2
2021/11/25 00:00:47;;;;;;;1.08;1.05;;;3.80;99.90;;;;;;5032254;28;20206;-68
2021/11/25 00:03:13;;;;;;;0.70;0.70;;;3.70;99.90;;;;;;5031450;28;20214;-71
2021/11/25 00:05:39;;;;;;;0.60;0.60;;;3.70;99.90;;;;;;5031416;28;21667;-72
2021/11/25 00:08:06;;;;;;;0.70;0.70;;;3.80;99.90;;;;;;5014255;28;20226;-69
2021/11/25 00:10:32;;;;;;;0.70;0.70;;;3.90;99.90;;;;;;5032047;28;20202;-70
2021/11/25 00:12:58;;;;;;;0.80;0.80;;;3.90;99.90;;;;;;5032113;28;20213;-69
2021/11/25 00:15:25;;;;;;;1.00;0.70;;;4.00;99.90;;;;;;5031930;28;20669;-69
2021/11/25 00:17:51;;;;;;;0.70;0.70;;;4.20;99.90;;;;;;5014183;28;20545;-69
2021/11/25 00:20:17;;;;;;;0.80;0.80;;;4.20;99.90;;;;;;5014077;28;20207;-69
2021/11/25 00:22:44;;;;;;;0.80;0.80;;;4.20;99.90;;;;;;5033157;28;20198;-69
2021/11/25 00:25:10;;;;;;;0.65;0.65;;;4.30;99.90;;;;;;5014023;28;20587;-70
2021/11/25 00:27:37;;;;;;;0.70;0.70;;;4.30;99.90;;;;;;5031837;28;20202;-69
2021/11/25 00:30:07;;;;;;;1.05;1.05;;;4.40;99.90;;;;;;5014141;28;20213;-69
2021/11/25 00:32:33;;;;;;;0.60;0.60;;;4.40;99.90;;;;;;5015148;28;20235;-69
2021/11/25 00:34:59;;;;;;;0.95;0.95;;;4.50;99.90;;;;;;5032355;28;20721;-70
2021/11/25 00:37:25;;;;;;;0.60;0.60;;;4.40;99.90;;;;;;5030276;28;20194;-69
2021/11/25 00:39:50;;;;;;;0.60;0.60;;;4.40;99.90;;;;;;5014213;28;20206;-69
2021/11/25 00:42:16;;;;;;;0.93;0.93;;;4.40;99.90;;;;;;5031992;28;20209;-69
2021/11/25 00:44:42;;;;;;;0.77;0.73;;;4.50;99.90;;;;;;5013795;28;20694;-69
2021/11/25 00:47:08;;;;;;;0.60;0.60;;;4.60;99.90;;;;;;5032905;28;20288;-70
2021/11/25 00:49:34;;;;;;;0.50;0.50;;;4.70;99.90;;;;;;5031437;28;20209;-69
2021/11/25 00:52:00;;;;;;;0.50;0.50;;;4.70;99.90;;;;;;5031348;28;20554;-68
2021/11/25 00:54:25;;;;;;;0.73;0.73;;;4.80;99.90;;;;;;5015007;28;20202;-68
2021/11/25 00:56:51;;;;;;;0.70;0.70;;;4.80;99.90;;;;;;5031464;28;20610;-69
2021/11/25 00:59:17;;;;;;;0.80;0.80;;;4.90;99.90;;;;;;5031448;28;20237;-68
2021/11/25 01:01:43;;;;;;;0.68;0.68;;;4.90;99.90;;;;;;5031050;28;20206;-69
2021/11/25 01:04:08;;;;;;;0.80;0.80;;;4.80;99.90;;;;;;5013532;28;20206;-69
2021/11/25 01:06:34;;;;;;;0.68;0.68;;;4.90;99.90;;;;;;5031137;28;20202;-68
2021/11/25 01:09:00;;;;;;;0.60;0.60;;;4.80;99.90;;;;;;5014334;28;20218;-69
2021/11/25 01:11:26;;;;;;;1.77;1.67;;;4.80;99.90;;;;;;5013216;28;20202;-69
2021/11/25 01:13:52;;;;;;;0.70;0.70;;;4.90;99.90;;;;;;5030860;28;20599;-68
2021/11/25 01:16:20;;;;;;;1.08;1.08;;;4.90;99.90;;;;;;5031076;28;20194;-70
2021/11/25 01:18:45;;;;;;;0.68;0.68;;;4.90;99.90;;;;;;5031079;28;20204;-69
2021/11/25 01:21:11;;;;;;;0.60;0.60;;;4.90;99.90;;;;;;5031098;28;20293;-69
2021/11/25 01:23:37;;;;;;;5.07;2.28;;;4.80;99.90;;;;;;5032415;28;20696;-68
2021/11/25 01:26:03;;;;;;;0.68;0.68;;;4.80;99.90;;;;;;5031005;28;20733;-69
2021/11/25 01:28:29;;;;;;;0.70;0.70;;;4.70;99.90;;;;;;5013544;28;20210;-69
2021/11/25 01:30:58;;;;;;;1.48;0.95;;;4.70;99.90;;;;;;5030869;28;20198;-75
2021/11/25 01:33:24;;;;;;;0.80;0.80;;;4.80;99.90;;;;;;5012879;28;20225;-69
2021/11/25 01:35:50;;;;;;;0.50;0.50;;;5.00;99.90;;;;;;5031102;28;20202;-68
2021/11/25 01:38:18;;;;;;;0.60;0.60;;;4.90;99.90;;;;;;5013041;28;20233;-68
2021/11/25 01:40:48;;;;;;;0.60;0.60;;;4.90;99.90;;;;;;5030861;28;20194;-68
2021/11/25 01:43:14;;;;;;;0.70;0.70;;;4.90;99.90;;;;;;5013437;28;20225;-69
2021/11/25 01:45:40;;;;;;;0.60;0.60;;;4.80;99.90;;;;;;5030909;28;20580;-68
2021/11/25 01:48:07;;;;;;;0.77;0.77;;;4.70;99.90;;;;;;5033129;28;20201;-69
2021/11/25 01:50:34;;;;;;;0.70;0.70;;;4.60;99.90;;;;;;5016927;28;20233;-68
2021/11/25 01:53:00;;;;;;;0.65;0.65;;;4.60;99.90;;;;;;5016877;28;20221;-68
2021/11/25 01:55:28;;;;;;;1.10;1.08;;;4.60;99.90;;;;;;5034524;28;20277;-69
2021/11/25 01:57:54;;;;;;;0.50;0.50;;;4.60;99.90;;;;;;5017123;28;20637;-70
2021/11/25 02:00:31;;;;;;;0.60;0.60;;;4.40;99.90;;;;;;5034499;28;20193;-70
2021/11/25 02:02:59;;;;;;;0.88;0.88;;;4.40;99.90;;;;;;5038070;28;20229;-75
2021/11/25 02:05:26;;;;;;;0.70;0.70;;;4.40;99.90;;;;;;5020248;28;20198;-76
2021/11/25 02:07:51;;;;;;;0.70;0.70;;;4.30;99.90;;;;;;5039875;28;20256;-76
2021/11/25 02:10:18;;;;;;;0.60;0.60;;;4.20;99.90;;;;;;5021528;28;20198;-74
2021/11/25 02:12:44;;;;;;;1.38;1.27;;;4.00;99.90;;;;;;5036175;28;20580;-76
2021/11/25 02:15:12;;;;;;;0.70;0.70;;;3.90;99.90;;;;;;5037584;28;20204;-76
2021/11/25 02:17:38;;;;;;;17.45;2.05;;;3.90;99.90;;;;;;5024358;28;20209;-76
2021/11/25 02:20:07;;;;;;;0.80;0.80;;;4.00;99.90;;;;;;5037385;28;20198;-76
2021/11/25 02:22:33;;;;;;;0.80;0.80;;;4.00;99.90;;;;;;5019855;28;20221;-77
2021/11/25 02:24:59;;;;;;;0.75;0.75;;;3.80;99.90;;;;;;5037562;28;20669;-76
2021/11/25 02:27:24;;;;;;;0.60;0.60;;;3.80;99.90;;;;;;5019546;28;20210;-77
2021/11/25 02:29:50;;;;;;;0.70;0.70;;;3.70;99.90;;;;;;5035685;28;20256;-76
2021/11/25 02:32:34;;;;;;;0.50;0.50;;;3.50;99.90;;;;;;5036323;28;20597;-76
2021/11/25 02:35:01;;;;;;;0.70;0.70;;;3.50;99.90;;;;;;5036057;28;20608;-76
2021/11/25 02:37:26;;;;;;;0.70;0.70;;;3.40;99.90;;;;;;5018770;28;20202;-77
2021/11/25 02:39:53;;;;;;;0.50;0.50;;;3.40;99.90;;;;;;5037774;28;20210;-77
2021/11/25 02:42:19;;;;;;;0.60;0.60;;;3.30;99.90;;;;;;5036683;28;20568;-75
2021/11/25 02:44:45;;;;;;;0.50;0.50;;;3.20;99.90;;;;;;5037491;28;20288;-76
2021/11/25 02:47:10;;;;;;;0.70;0.70;;;3.20;99.90;;;;;;5017970;28;20268;-77
2021/11/25 02:49:39;;;;;;;0.60;0.60;;;3.20;99.90;;;;;;5038824;28;20213;-76
2021/11/25 02:52:05;;;;;;;0.50;0.50;;;3.10;99.90;;;;;;5036031;28;20276;-77
2021/11/25 02:54:31;;;;;;;0.60;0.60;;;3.20;99.90;;;;;;5020832;28;20202;-77
2021/11/25 02:56:57;;;;;;;0.50;0.50;;;3.20;99.90;;;;;;5036527;28;20284;-76
2021/11/25 02:59:23;;;;;;;0.77;0.77;;;3.10;99.90;;;;;;5032841;28;20210;-76
2021/11/25 03:01:48;;;;;;;0.75;0.73;;;3.00;99.90;;;;;;5033480;28;20245;-76
2021/11/25 03:04:14;;;;;;;0.57;0.57;;;2.90;99.90;;;;;;5015917;28;20559;-76
2021/11/25 03:06:39;;;;;;;0.80;0.80;;;2.90;99.90;;;;;;5033492;28;20756;-77
2021/11/25 03:09:06;;;;;;;0.63;0.63;;;2.90;99.90;;;;;;5033286;28;20230;-76
2021/11/25 03:11:33;;;;;;;0.60;0.60;;;2.80;99.90;;;;;;5033236;28;20252;-77
2021/11/25 03:14:03;;;;;;;0.63;0.63;;;2.80;99.90;;;;;;5033185;28;20210;-76
2021/11/25 03:16:30;;;;;;;0.40;0.40;;;2.70;99.90;;;;;;5033321;28;20229;-76
2021/11/25 03:18:56;;;;;;;0.70;0.70;;;2.70;99.90;;;;;;5033717;28;20190;-76
2021/11/25 03:21:22;;;;;;;0.60;0.60;;;2.70;99.90;;;;;;5034627;28;20681;-76
2021/11/25 03:23:51;;;;;;;0.70;0.70;;;2.70;99.90;;;;;;5036145;28;20206;-76
2021/11/25 03:26:19;;;;;;;0.60;0.60;;;2.70;99.90;;;;;;5015447;28;20263;-76
2021/11/25 03:28:45;;;;;;;0.60;0.60;;;2.70;99.90;;;;;;5034380;28;20206;-76
2021/11/25 03:31:26;;;;;;;0.50;0.50;;;2.70;99.90;;;;;;5033207;28;20216;-75
2021/11/25 03:33:53;;;;;;;0.60;0.60;;;2.60;99.90;;;;;;5032814;28;20711;-75
2021/11/25 03:36:19;;;;;;;1.95;1.58;;;2.60;99.90;;;;;;5034148;28;20600;-75
2021/11/25 03:38:45;;;;;;;4.43;2.67;;;2.40;99.90;;;;;;5032886;28;20206;-75
2021/11/25 03:41:14;;;;;;;0.60;0.60;;;2.40;99.90;;;;;;5016716;28;20748;-76
2021/11/25 03:43:40;;;;;;;0.60;0.60;;;2.40;99.90;;;;;;5031735;28;20214;-77
2021/11/25 03:46:06;;;;;;;0.60;0.60;;;2.40;99.90;;;;;;5014989;28;20285;-75
2021/11/25 03:48:32;;;;;;;0.60;0.60;;;2.30;99.90;;;;;;5015651;28;20213;-77
2021/11/25 03:51:01;;;;;;;0.50;0.50;;;2.20;99.90;;;;;;5033986;28;20202;-77
2021/11/25 03:53:28;;;;;;;0.63;0.63;;;2.20;99.90;;;;;;5032380;28;20206;-77
2021/11/25 03:55:54;;;;;;;0.70;0.70;;;2.10;99.90;;;;;;5032780;28;20280;-77
2021/11/25 03:58:20;;;;;;;0.60;0.60;;;2.40;99.90;;;;;;5033756;28;20234;-75
2021/11/25 04:00:48;;;;;;;0.70;0.70;;;2.60;99.90;;;;;;5033622;28;20229;-75
2021/11/25 04:03:14;;;;;;;0.50;0.50;;;2.80;99.90;;;;;;5031348;28;20576;-75
2021/11/25 04:05:40;;;;;;;0.50;0.50;;;2.70;99.90;;;;;;5033527;28;20289;-75
2021/11/25 04:08:05;;;;;;;0.50;0.50;;;2.50;99.90;;;;;;5012184;28;20318;-75
2021/11/25 04:10:31;;;;;;;0.60;0.60;;;2.30;99.90;;;;;;5012738;28;20284;-75
2021/11/25 04:12:57;;;;;;;0.85;0.85;;;2.20;99.90;;;;;;5012370;28;20234;-75
2021/11/25 04:15:23;;;;;;;0.50;0.50;;;2.10;99.90;;;;;;5013492;28;20712;-76
2021/11/25 04:17:49;;;;;;;0.60;0.60;;;2.00;99.90;;;;;;5012391;28;20198;-75
2021/11/25 04:20:15;;;;;;;0.60;0.60;;;2.00;99.90;;;;;;5010931;28;20616;-76
2021/11/25 04:22:42;;;;;;;0.70;0.70;;;1.90;99.90;;;;;;5012096;28;20211;-77
2021/11/25 04:25:09;;;;;;;0.70;0.70;;;1.80;99.90;;;;;;5011999;28;20673;-75
2021/11/25 04:27:36;;;;;;;0.60;0.60;;;1.80;99.90;;;;;;5011987;28;20292;-75
2021/11/25 04:30:10;;;;;;;1.23;1.17;;;1.70;99.90;;;;;;5013382;28;20731;-76
2021/11/25 04:38:00;;;;;;;0.63;0.63;;;1.60;99.90;;;;;;5012131;28;20197;-76
2021/11/25 04:40:26;;;;;;;0.70;0.70;;;1.50;99.90;;;;;;5013052;28;20526;-76
2021/11/25 04:42:51;;;;;;;0.70;0.70;;;1.50;99.90;;;;;;5011944;28;20638;-75
2021/11/25 04:45:17;;;;;;;0.60;0.60;;;1.40;99.90;;;;;;5011849;28;20276;-75
2021/11/25 04:47:43;;;;;;;0.55;0.55;;;1.30;99.90;;;;;;5010927;28;20199;-77
2021/11/25 04:50:09;;;;;;;0.70;0.70;;;1.20;99.90;;;;;;5010683;28;20219;-76
2021/11/25 04:52:34;;;;;;;0.63;0.63;;;1.10;99.90;;;;;;5011897;28;20320;-76
2021/11/25 04:55:00;;;;;;;0.60;0.60;;;1.00;99.90;;;;;;5011702;28;20199;-77
2021/11/25 04:57:26;;;;;;;0.50;0.50;;;0.90;99.90;;;;;;5011601;28;20205;-77
2021/11/25 04:59:52;;;;;;;0.70;0.70;;;0.80;99.90;;;;;;5013566;28;20293;-76
2021/11/25 05:02:17;;;;;;;0.70;0.70;;;0.80;99.90;;;;;;5011783;28;20214;-79
2021/11/25 05:04:43;;;;;;;0.73;0.73;;;0.70;99.90;;;;;;5012919;28;20203;-75
2021/11/25 05:07:08;;;;;;;0.60;0.60;;;0.70;99.90;;;;;;5012759;28;20218;-76
2021/11/25 05:09:34;;;;;;;0.60;0.60;;;0.60;99.90;;;;;;5031261;28;20218;-76
2021/11/25 05:12:00;;;;;;;0.65;0.65;;;0.50;99.90;;;;;;5031229;28;20260;-76
2021/11/25 05:14:25;;;;;;;0.70;0.70;;;0.40;99.90;;;;;;5031253;28;20232;-76
2021/11/25 05:16:51;;;;;;;0.73;0.73;;;0.40;99.90;;;;;;5013259;28;20209;-75
2021/11/25 05:19:18;;;;;;;0.70;0.70;;;0.40;99.90;;;;;;5031187;28;20221;-75
2021/11/25 05:21:44;;;;;;;0.60;0.60;;;0.40;99.90;;;;;;5031023;28;20202;-76
2021/11/25 05:24:09;;;;;;;0.70;0.70;;;0.40;99.90;;;;;;5035260;28;20256;-74
2021/11/25 05:26:35;;;;;;;0.70;0.70;;;0.40;99.90;;;;;;5035126;28;20194;-75
2021/11/25 05:29:01;;;;;;;0.70;0.70;;;0.30;99.90;;;;;;5033502;28;20233;-75
2021/11/25 05:31:27;;;;;;;0.63;0.63;;;0.20;99.90;;;;;;5018392;28;20248;-75
2021/11/25 05:33:52;;;;;;;0.57;0.57;;;0.20;99.90;;;;;;5036266;28;20681;-75
2021/11/25 05:36:18;;;;;;;0.80;0.80;;;0.30;99.90;;;;;;5035381;28;20202;-75
2021/11/25 05:38:44;;;;;;;0.90;0.90;;;0.30;99.90;;;;;;5034783;28;20210;-76
2021/11/25 05:41:10;;;;;;;0.77;0.77;;;0.40;99.90;;;;;;5036033;28;20240;-76
2021/11/25 05:43:36;;;;;;;0.73;0.73;;;0.30;99.90;;;;;;5035847;28;20213;-75
2021/11/25 05:46:02;;;;;;;0.70;0.70;;;0.20;99.90;;;;;;5034526;28;20217;-77
2021/11/25 05:48:28;;;;;;;1.00;1.00;;;0.10;99.90;;;;;;5034395;28;20202;-76
2021/11/25 05:50:56;;;;;;;0.80;0.80;;;0.20;99.90;;;;;;5035834;28;20213;-76
2021/11/25 05:53:22;;;;;;;0.70;0.70;;;0.10;99.90;;;;;;5016379;28;20684;-77
2021/11/25 05:55:48;;;;;;;0.80;0.80;;;0.00;99.90;;;;;;5034704;28;20198;-78
2021/11/25 05:58:14;;;;;;;0.68;0.68;;;0.00;99.90;;;;;;5018979;28;20615;-78
2021/11/25 06:00:42;;;;;;;0.70;0.70;;;0.00;99.90;;;;;;5038853;28;20788;-78
2021/11/25 06:03:08;;;;;;;0.80;0.80;;;-0.10;99.90;;;;;;5036179;28;20718;-78
2021/11/25 06:05:34;;;;;;;0.60;0.60;;;-0.20;99.90;;;;;;5018705;28;20206;-78
2021/11/25 06:08:02;;;;;;;0.70;0.70;;;-0.30;99.90;;;;;;5039233;28;20222;-78
2021/11/25 06:10:28;;;;;;;0.60;0.60;;;-0.30;99.90;;;;;;5019740;28;20255;-77
2021/11/25 06:12:56;;;;;;;0.52;0.52;;;-0.30;99.90;;;;;;5037907;28;20225;-77
2021/11/25 06:15:22;;;;;;;0.70;0.70;;;-0.30;99.90;;;;;;5037060;28;20723;-78
2021/11/25 06:17:49;;;;;;;0.70;0.70;;;-0.30;99.90;;;;;;5037223;28;20206;-78
2021/11/25 06:20:16;;;;;;;0.70;0.70;;;-0.30;99.90;;;;;;5022783;28;20681;-78
2021/11/25 06:22:45;;;;;;;0.60;0.60;;;-0.40;99.90;;;;;;5038860;28;20206;-76
2021/11/25 06:25:12;;;;;;;0.80;0.80;;;-0.30;99.90;;;;;;5022142;28;20736;-77
2021/11/25 06:27:39;;;;;;;0.85;0.85;;;-0.40;99.90;;;;;;5038210;28;20687;-78
2021/11/25 06:30:09;;;;;;;0.70;0.70;;;-0.40;99.90;;;;;;5034451;28;20695;-76
2021/11/25 06:32:38;;;;;;;0.70;0.70;;;-0.50;99.90;;;;;;5037454;28;20214;-76
2021/11/25 06:35:15;;;;;;;0.70;0.70;;;-0.50;99.90;;;;;;5018864;28;20230;-76
2021/11/25 06:37:46;;;;;;;0.80;0.80;;;-0.50;99.90;;;;;;5036359;28;20210;-78
2021/11/25 06:40:14;;;;;;;0.80;0.80;;;-0.60;99.90;;;;;;5021200;28;20732;-77
2021/11/25 06:42:40;;;;;;;0.52;0.52;;;-0.70;99.90;;;;;;5037883;28;20770;-77
2021/11/25 06:45:07;;;;;;;0.68;0.68;;;-0.70;99.90;;;;;;5038927;28;20214;-77
2021/11/25 06:47:33;;;;;;;0.70;0.70;;;-0.70;99.90;;;;;;5037799;28;20229;-77
2021/11/25 06:49:59;;;;;;;0.80;0.80;;;-0.80;99.90;;;;;;5021153;28;20210;-77
2021/11/25 06:52:24;;;;;;;0.68;0.68;;;-0.80;99.90;;;;;;5038374;28;20229;-77
2021/11/25 06:54:50;;;;;;;0.60;0.60;;;-0.90;99.90;;;;;;5020207;28;20202;-77
2021/11/25 06:57:16;;;;;;;0.60;0.60;;;-0.90;99.90;;;;;;5020324;28;20202;-78
2021/11/25 06:59:41;;;;;;;0.80;0.80;;;-0.90;99.90;;;;;;5039105;28;20288;-78
2021/11/25 07:02:08;;;;;;;0.75;0.75;;;-0.90;99.90;;;;;;5036417;28;20206;-77
2021/11/25 07:04:33;;;;;;;0.70;0.70;;;-0.90;99.90;;;;;;5036695;28;20206;-77
2021/11/25 07:07:00;;;;;;;0.60;0.60;;;-0.90;99.90;;;;;;5040450;28;20202;-77
2021/11/25 07:09:26;;;;;;;0.77;0.77;;;-0.90;99.90;;;;;;5040176;28;20241;-77
2021/11/25 07:11:54;;;;;;;0.70;0.70;;;-0.90;99.90;;;;;;5038597;28;20234;-78
2021/11/25 07:14:20;;;;;;;0.70;0.70;;;-0.80;99.90;;;;;;5040917;28;20201;-76
2021/11/25 07:16:46;;;;;;;0.68;0.68;;;-0.80;99.90;;;;;;5036339;28;20210;-77
2021/11/25 07:19:11;;;;;;;0.80;0.80;;;-0.80;99.90;;;;;;5034121;28;20248;-77
2021/11/25 07:21:37;;;;;;;0.75;0.75;;;-0.80;99.90;;;;;;5017192;28;20799;-77
2021/11/25 07:24:03;;;;;;;0.70;0.70;;;-0.80;99.90;;;;;;5036825;28;20212;-77
2021/11/25 07:26:28;;;;;;;0.80;0.80;;;-0.90;99.90;;;;;;5017922;28;20292;-78
2021/11/25 07:28:57;;;;;;;0.80;0.80;;;-0.80;99.90;;;;;;5036133;28;20206;-78
2021/11/25 07:31:27;;;;;;;0.70;0.70;;;-0.80;99.90;;;;;;5037250;28;20198;-79
2021/11/25 07:33:54;;;;;;;0.70;0.70;;;-0.80;99.90;;;;;;5037198;28;20596;-77
2021/11/25 07:36:20;;;;;;;0.70;0.70;;;-0.80;99.90;;;;;;5034923;28;20575;-77
2021/11/25 07:38:45;;;;;;;0.68;0.68;;;-0.80;99.90;;;;;;5018406;28;20198;-78
2021/11/25 07:41:11;;;;;;;0.80;0.80;;;-0.80;99.90;;;;;;5017508;28;20265;-78
2021/11/25 07:43:36;;;;;;;0.60;0.60;;;-0.80;99.90;;;;;;5018484;28;20209;-79
2021/11/25 07:46:02;;;;;;;0.80;0.80;;;-0.80;99.90;;;;;;5036046;28;20210;-78
2021/11/25 07:48:28;;;;;;;0.65;0.65;;;-0.80;99.90;;;;;;5016876;28;20202;-79
2021/11/25 07:50:55;;;;;;;0.70;0.70;;;-0.80;99.90;;;;;;5034635;28;20202;-79
2021/11/25 07:53:21;;;;;;;0.80;0.80;;;-0.80;99.90;;;;;;5035322;28;20229;-79
2021/11/25 07:55:47;;;;;;;0.70;0.70;;;-0.90;99.90;;;;;;5034338;28;20198;-79
2021/11/25 07:58:13;;;;;;;0.68;0.68;;;-0.90;99.90;;;;;;5035739;28;20277;-77
2021/11/25 08:00:38;;;;;;;0.80;0.80;;;-0.90;99.90;;;;;;5035770;28;20205;-79
2021/11/25 08:03:04;;;;;;;0.80;0.80;;;-0.80;99.90;;;;;;5035328;28;20669;-77
2021/11/25 08:05:30;;;;;;;0.82;0.82;;;-0.80;99.90;;;;;;5017394;28;20198;-78
2021/11/25 08:07:58;;;;;;;0.88;0.88;;;-0.80;99.90;;;;;;5033438;28;20230;-79
2021/11/25 08:10:25;;;;;;;0.60;0.60;;;-0.80;99.90;;;;;;5033743;28;20258;-80
2021/11/25 08:12:51;;;;;;;0.77;0.77;;;-0.70;99.90;;;;;;5033853;28;20575;-79
2021/11/25 08:15:17;;;;;;;0.80;0.80;;;-0.70;99.90;;;;;;5018162;28;20219;-78
2021/11/25 08:17:43;;;;;;;0.60;0.60;;;-0.60;99.90;;;;;;5016459;28;20195;-78
2021/11/25 08:20:10;;;;;;;0.73;0.73;;;-0.60;99.90;;;;;;5036279;28;20267;-78
2021/11/25 08:22:36;;;;;;;0.80;0.80;;;-0.50;99.90;;;;;;5037224;28;20213;-79
2021/11/25 08:25:05;;;;;;;0.80;0.80;;;-0.50;99.90;;;;;;5023219;28;20201;-78
2021/11/25 08:27:31;;;;;;;0.70;0.70;;;-0.50;99.90;;;;;;5018073;28;20207;-78
2021/11/25 08:29:56;;;;;;;0.70;0.70;;;-0.40;99.90;;;;;;5019823;28;20202;-78
2021/11/25 08:32:22;;;;;;;0.77;0.77;;;-0.40;99.90;;;;;;5040156;28;20217;-76
2021/11/25 08:34:48;;;;;;;0.80;0.80;;;-0.40;99.90;;;;;;5037523;28;20210;-77
2021/11/25 08:37:14;;;;;;;0.70;0.70;;;-0.30;99.90;;;;;;5017814;28;20268;-79
2021/11/25 08:39:40;;;;;;;0.70;0.70;;;-0.20;99.90;;;;;;5034553;28;20206;-78
2021/11/25 08:42:07;;;;;;;0.70;0.70;;;-0.20;99.90;;;;;;5035727;28;20208;-77
2021/11/25 08:44:33;;;;;;;0.70;0.70;;;-0.10;99.90;;;;;;5033691;28;20284;-80
2021/11/25 08:47:02;;;;;;;0.75;0.75;;;0.00;99.90;;;;;;5016091;28;20205;-79
2021/11/25 08:49:29;;;;;;;0.70;0.70;;;0.00;99.90;;;;;;5033246;28;20260;-80
2021/11/25 08:51:55;;;;;;;0.60;0.60;;;0.10;99.90;;;;;;5034873;28;20197;-78
2021/11/25 08:54:21;;;;;;;0.70;0.70;;;0.10;99.90;;;;;;5016408;28;20206;-78
2021/11/25 08:56:48;;;;;;;0.60;0.60;;;0.20;99.90;;;;;;5035876;28;20673;-79
2021/11/25 08:59:14;;;;;;;0.70;0.70;;;0.20;99.90;;;;;;5020053;28;20214;-79
2021/11/25 09:01:39;;;;;;;3.42;1.70;;;0.30;99.90;;;;;;5038627;28;20225;-79
2021/11/25 09:04:05;;;;;;;0.77;0.77;;;0.30;99.90;;;;;;5019990;28;20233;-79
2021/11/25 09:06:31;;;;;;;0.75;0.75;;;0.40;99.90;;;;;;5035429;28;20202;-78
2021/11/25 09:08:59;;;;;;;0.68;0.68;;;0.50;99.90;;;;;;5037250;28;20222;-78
2021/11/25 09:11:25;;;;;;;0.80;0.80;;;0.60;99.90;;;;;;5036240;28;20213;-79
2021/11/25 09:13:50;;;;;;;0.70;0.70;;;0.60;99.90;;;;;;5037605;28;20213;-77
2021/11/25 09:16:17;;;;;;;0.77;0.77;;;0.60;99.90;;;;;;5018914;28;20224;-78
2021/11/25 09:18:43;;;;;;;1.00;1.00;;;0.60;99.90;;;;;;5035438;28;20197;-78
2021/11/25 09:21:09;;;;;;;0.77;0.77;;;0.70;99.90;;;;;;5036356;28;20276;-78
2021/11/25 09:23:35;;;;;;;0.73;0.73;;;0.80;99.90;;;;;;5017734;28;20198;-78
2021/11/25 09:26:01;;;;;;;0.70;0.70;;;0.80;99.90;;;;;;5018160;28;20237;-77
2021/11/25 09:28:28;;;;;;;0.70;0.70;;;0.90;99.90;;;;;;5033485;28;20202;-77
2021/11/25 09:30:55;;;;;;;0.70;0.70;;;1.00;99.90;;;;;;5034856;28;20294;-77
2021/11/25 09:33:21;;;;;;;0.68;0.68;;;1.00;99.90;;;;;;5015697;28;20339;-77
2021/11/25 09:35:47;;;;;;;0.63;0.63;;;1.10;99.90;;;;;;5037372;28;20251;-78
2021/11/25 09:38:15;;;;;;;0.60;0.60;;;1.00;99.90;;;;;;5037084;28;20206;-78
2021/11/25 09:40:43;;;;;;;0.60;0.60;;;1.00;99.90;;;;;;5034197;28;20205;-78
2021/11/25 09:43:11;;;;;;;0.90;0.90;;;1.00;99.90;;;;;;5015598;28;20201;-77
2021/11/25 09:45:40;;;;;;;0.77;0.77;;;1.00;99.90;;;;;;5015928;28;20677;-78
2021/11/25 09:48:08;;;;;;;0.70;0.70;;;0.90;99.90;;;;;;5016765;28;20264;-77
2021/11/25 09:50:37;;;;;;;0.68;0.68;;;0.90;99.90;;;;;;5018596;28;20221;-76
2021/11/25 09:53:08;;;;;;;0.70;0.70;;;0.90;99.90;;;;;;5035598;28;20215;-77
2021/11/25 09:55:36;;;;;;;0.60;0.60;;;0.90;99.90;;;;;;5017472;28;20254;-77
2021/11/25 09:58:03;;;;;;;0.60;0.60;;;0.80;99.90;;;;;;5034561;28;20190;-77
2021/11/25 10:00:32;;;;;;;0.68;0.68;;;0.70;99.90;;;;;;5032318;28;20289;-74
2021/11/25 10:02:58;;;;;;;0.63;0.63;;;0.60;99.90;;;;;;5032641;28;20232;-78
2021/11/25 10:05:24;;;;;;;0.70;0.70;;;0.50;99.90;;;;;;5032420;28;20600;-75
2021/11/25 10:07:50;;;;;;;0.70;0.70;;;0.50;99.90;;;;;;5033322;28;20308;-78
2021/11/25 10:10:19;;;;;;;0.80;0.80;;;0.50;99.90;;;;;;5018874;28;20224;-78
2021/11/25 10:12:47;;;;;;;0.60;0.60;;;0.50;99.90;;;;;;5037445;28;20313;-78
2021/11/25 10:15:33;;;;;;;0.60;0.60;;;0.40;99.90;;;;;;5038136;28;20285;-77
2021/11/25 10:18:05;;;;;;;0.70;0.70;;;0.40;99.90;;;;;;5037794;28;20541;-78
2021/11/25 10:20:37;;;;;;;0.80;0.80;;;0.30;99.90;;;;;;5036323;28;20197;-76
2021/11/25 10:23:03;;;;;;;0.70;0.70;;;0.20;99.90;;;;;;5036392;28;20210;-78
2021/11/25 10:25:59;;;;;;;0.75;0.75;;;0.20;99.90;;;;;;5035821;28;20210;-77
2021/11/25 10:28:39;;;;;;;0.70;0.70;;;0.20;99.90;;;;;;5037742;28;20665;-77
2021/11/25 10:31:11;;;;;;;0.65;0.65;;;0.10;99.90;;;;;;5038638;28;20262;-77
2021/11/25 10:33:47;;;;;;;0.65;0.65;;;0.10;99.90;;;;;;5019704;28;20218;-77
2021/11/25 10:36:29;;;;;;;0.70;0.70;;;0.10;99.90;;;;;;5037084;28;20201;-78
2021/11/25 10:39:27;;;;;;;0.77;0.77;;;0.10;99.90;;;;;;5037409;28;20735;-77
2021/11/25 10:41:59;;;;;;;0.63;0.63;;;0.10;99.90;;;;;;5019832;28;20206;-78
2021/11/25 10:44:27;;;;;;;0.80;0.80;;;0.00;99.90;;;;;;5035922;28;20264;-78
2021/11/25 10:47:01;;;;;;;0.70;0.70;;;0.00;99.90;;;;;;5037094;28;20206;-77
2021/11/25 10:49:39;;;;;;;0.80;0.80;;;-0.10;99.90;;;;;;5003591;28;20571;-78
2021/11/25 10:52:19;;;;;;;0.65;0.65;;;-0.10;99.90;;;;;;5020222;28;20221;-77
2021/11/25 10:54:57;;;;;;;0.70;0.70;;;-0.10;99.90;;;;;;5020480;28;20194;-78
2021/11/25 10:57:34;;;;;;;0.60;0.60;;;-0.10;99.90;;;;;;5019037;28;20253;-78
2021/11/25 11:00:06;;;;;;;0.60;0.60;;;-0.10;99.90;;;;;;5034563;28;20692;-78
2021/11/25 11:02:32;;;;;;;0.80;0.80;;;-0.10;99.90;;;;;;5034801;28;20665;-77
2021/11/25 11:05:03;;;;;;;0.60;0.60;;;-0.10;99.90;;;;;;5015713;28;20252;-77
2021/11/25 11:07:37;;;;;;;0.80;0.80;;;0.00;99.90;;;;;;5033948;28;20649;-78
2021/11/25 11:10:28;;;;;;;0.70;0.70;;;0.20;99.90;;;;;;5002679;28;20233;-77
2021/11/25 11:15:33;;;;;;;0.70;0.70;;;0.40;99.90;;;;;;5037910;28;20289;-78
2021/11/25 11:20:44;;;;;;;0.70;0.70;;;0.80;99.90;;;;;;5035054;28;20273;-78
2021/11/25 11:23:12;;;;;;;0.70;0.70;;;1.00;99.90;;;;;;5034878;28;20610;-79
2021/11/25 11:25:38;;;;;;;0.63;0.63;;;1.20;99.90;;;;;;5034785;28;20208;-79
2021/11/25 11:28:06;;;;;;;0.63;0.63;;;1.40;99.90;;;;;;5016946;28;20202;-78
2021/11/25 11:30:35;;;;;;;0.60;0.60;;;1.50;99.90;;;;;;5036513;28;20262;-79
2021/11/25 11:33:04;;;;;;;0.60;0.60;;;1.70;99.90;;;;;;5037740;28;20202;-78
2021/11/25 11:35:33;;;;;;;0.70;0.70;;;1.90;99.90;;;;;;5042143;28;20553;-78
2021/11/25 11:38:02;;;;;;;0.63;0.63;;;2.00;99.90;;;;;;5041312;28;20220;-79
2021/11/25 11:40:29;;;;;;;0.70;0.70;;;2.00;99.90;;;;;;5037858;28;20251;-76
2021/11/25 11:42:58;;;;;;;0.60;0.60;;;2.10;99.90;;;;;;5041598;28;20206;-76
2021/11/25 11:45:27;;;;;;;0.75;0.75;;;2.20;99.90;;;;;;5045692;28;20649;-77
2021/11/25 11:47:55;;;;;;;0.70;0.70;;;2.30;99.90;;;;;;5044702;28;20214;-78
2021/11/25 11:50:40;;;;;;;0.70;0.70;;;2.40;99.90;;;;;;5042619;28;20217;-77
2021/11/25 11:53:08;;;;;;;0.70;0.70;;;2.50;99.90;;;;;;5038755;28;20221;-77
2021/11/25 11:55:49;;;;;;;0.70;0.70;;;2.50;99.90;;;;;;5042992;28;20213;-77
2021/11/25 11:58:24;;;;;;;0.70;0.70;;;2.50;99.90;;;;;;5020099;28;20724;-78
2021/11/25 12:01:06;;;;;;;0.60;0.60;;;2.50;99.90;;;;;;5037352;28;20284;-77
2021/11/25 12:03:40;;;;;;;0.60;0.60;;;2.50;99.90;;;;;;5035658;28;20217;-75
2021/11/25 12:06:07;;;;;;;0.50;0.50;;;2.50;99.90;;;;;;5017075;28;20279;-74
2021/11/25 12:08:36;;;;;;;0.80;0.80;;;2.60;99.90;;;;;;5033898;28;20333;-75
2021/11/25 12:11:03;;;;;;;0.60;0.60;;;2.60;99.90;;;;;;5016732;28;20297;-76
2021/11/25 12:13:50;;;;;;;1.15;0.85;;;2.60;99.90;;;;;;5034240;28;20210;-78
2021/11/25 12:16:16;;;;;;;0.50;0.50;;;2.60;99.90;;;;;;4999421;28;20581;-76
2021/11/25 12:19:04;;;;;;;0.70;0.70;;;2.60;99.90;;;;;;5033204;28;20206;-78
2021/11/25 12:21:32;;;;;;;0.60;0.60;;;2.50;99.90;;;;;;5017298;28;20209;-73
2021/11/25 12:24:19;;;;;;;0.55;0.55;;;2.50;99.90;;;;;;5034989;28;20203;-76
2021/11/25 12:27:18;;;;;;;0.57;0.57;;;2.50;99.90;;;;;;5017972;28;20248;-76
2021/11/25 12:30:04;;;;;;;0.68;0.68;;;2.60;99.90;;;;;;5001862;28;20289;-78
2021/11/25 12:32:44;;;;;;;0.70;0.70;;;2.50;99.90;;;;;;5018355;28;20225;-76
2021/11/25 12:35:15;;;;;;;0.70;0.70;;;2.50;99.90;;;;;;5035083;28;20198;-76
2021/11/25 12:37:54;;;;;;;0.60;0.60;;;2.40;99.90;;;;;;5035460;28;20209;-77
2021/11/25 12:40:20;;;;;;;0.70;0.70;;;2.30;99.90;;;;;;5016072;28;20205;-76
2021/11/25 12:42:47;;;;;;;0.70;0.70;;;2.30;99.90;;;;;;5035381;28;20202;-77
2021/11/25 12:45:23;;;;;;;0.70;0.70;;;2.20;99.90;;;;;;5035280;28;20206;-76
2021/11/25 12:48:05;;;;;;;0.70;0.70;;;2.20;99.90;;;;;;5018255;28;20201;-76
2021/11/25 12:50:35;;;;;;;0.60;0.60;;;2.10;99.90;;;;;;5036380;28;20206;-79
2021/11/25 12:53:08;;;;;;;0.80;0.80;;;2.10;99.90;;;;;;5018847;28;20213;-77
2021/11/25 12:55:34;;;;;;;0.80;0.80;;;2.10;99.90;;;;;;5034709;28;20319;-77
2021/11/25 12:57:59;;;;;;;0.70;0.70;;;2.00;99.90;;;;;;5036839;28;20223;-77
2021/11/25 13:00:28;;;;;;;0.65;0.65;;;2.10;99.90;;;;;;5015756;28;20790;-74
2021/11/25 13:03:19;;;;;;;0.70;0.70;;;2.00;99.90;;;;;;5015855;28;20205;-75
2021/11/25 13:05:47;;;;;;;0.60;0.60;;;2.10;99.90;;;;;;5018026;28;20359;-77
2021/11/25 13:08:32;;;;;;;0.60;0.60;;;2.10;99.90;;;;;;5032299;28;20274;-76
2021/11/25 13:10:59;;;;;;;0.70;0.70;;;2.00;99.90;;;;;;5031452;28;20677;-77